sensor_id;sensor_type;location;lat;lon;timestamp;temperature;humidity
935;DHT22;454;53.254;10.400;2022-09-25T04:01:23;13.10;99.90
935;DHT22;454;53.254;10.400;2022-09-25T04:03:50;13.10;99.90
935;DHT22;454;53.254;10.400;2022-09-25T04:06:19;13.10;99.90
935;DHT22;454;53.254;10.400;2022-09-25T04:08:47;13.10;99.90
935;DHT22;454;53.254;10.400;2022-09-25T04:11:15;13.00;99.90
935;DHT22;454;53.254;10.400;2022-09-25T04:13:42;13.00;99.90
935;DHT22;454;53.254;10.400;2022-09-25T04:16:10;13.10;99.90
935;DHT22;454;53.254;10.400;2022-09-25T04:18:38;13.10;99.90
935;DHT22;454;53.254;10.400;2022-09-25T04:21:07;13.10;99.90
935;DHT22;454;53.254;10.400;2022-09-25T04:23:35;13.00;99.90
935;DHT22;454;53.254;10.400;2022-09-25T04:26:02;13.00;99.90
935;DHT22;454;53.254;10.400;2022-09-25T04:28:29;13.00;99.90
935;DHT22;454;53.254;10.400;2022-09-25T04:30:57;13.00;99.90
935;DHT22;454;53.254;10.400;2022-09-25T04:33:24;13.00;99.90
935;DHT22;454;53.254;10.400;2022-09-25T04:36:09;13.00;99.90
935;DHT22;454;53.254;10.400;2022-09-25T04:38:36;13.00;99.90
935;DHT22;454;53.254;10.400;2022-09-25T04:41:03;13.00;99.90
935;DHT22;454;53.254;10.400;2022-09-25T04:43:31;13.00;99.90
935;DHT22;454;53.254;10.400;2022-09-25T04:46:00;12.90;99.90
935;DHT22;454;53.254;10.400;2022-09-25T04:48:27;12.90;99.90
935;DHT22;454;53.254;10.400;2022-09-25T04:50:54;12.90;99.90
935;DHT22;454;53.254;10.400;2022-09-25T04:53:24;12.90;99.90
935;DHT22;454;53.254;10.400;2022-09-25T04:55:51;12.90;99.90
935;DHT22;454;53.254;10.400;2022-09-25T04:58:20;12.90;99.90
935;DHT22;454;53.254;10.400;2022-09-25T05:00:47;12.90;99.90
935;DHT22;454;53.254;10.400;2022-09-25T05:03:14;12.90;99.90
935;DHT22;454;53.254;10.400;2022-09-25T05:05:41;12.90;99.90
935;DHT22;454;53.254;10.400;2022-09-25T05:08:09;12.90;99.90
935;DHT22;454;53.254;10.400;2022-09-25T05:10:37;12.90;99.90
935;DHT22;454;53.254;10.400;2022-09-25T05:13:06;12.90;99.90
935;DHT22;454;53.254;10.400;2022-09-25T05:15:34;12.90;99.90
935;DHT22;454;53.254;10.400;2022-09-25T05:18:01;12.90;99.90
935;DHT22;454;53.254;10.400;2022-09-25T05:20:28;12.90;99.90
935;DHT22;454;53.254;10.400;2022-09-25T05:22:55;12.90;99.90
935;DHT22;454;53.254;10.400;2022-09-25T05:25:22;12.90;99.90
935;DHT22;454;53.254;10.400;2022-09-25T05:27:51;12.90;99.90
935;DHT22;454;53.254;10.400;2022-09-25T05:30:18;12.90;99.90
935;DHT22;454;53.254;10.400;2022-09-25T05:32:48;12.90;99.90
935;DHT22;454;53.254;10.400;2022-09-25T05:35:16;12.90;99.90
935;DHT22;454;53.254;10.400;2022-09-25T05:37:43;12.90;99.90
935;DHT22;454;53.254;10.400;2022-09-25T05:40:14;12.90;99.90
935;DHT22;454;53.254;10.400;2022-09-25T05:42:41;12.90;99.90
935;DHT22;454;53.254;10.400;2022-09-25T05:45:11;12.80;99.90
935;DHT22;454;53.254;10.400;2022-09-25T05:47:38;12.90;99.90
935;DHT22;454;53.254;10.400;2022-09-25T05:50:06;12.90;99.90
935;DHT22;454;53.254;10.400;2022-09-25T05:52:32;12.90;99.90
935;DHT22;454;53.254;10.400;2022-09-25T05:54:59;12.90;99.90
935;DHT22;454;53.254;10.400;2022-09-25T05:57:29;12.90;99.90
935;DHT22;454;53.254;10.400;2022-09-25T05:59:56;12.90;99.90
935;DHT22;454;53.254;10.400;2022-09-25T06:02:24;12.90;99.90
935;DHT22;454;53.254;10.400;2022-09-25T06:04:51;12.90;99.90
935;DHT22;454;53.254;10.400;2022-09-25T06:07:18;12.90;99.90
935;DHT22;454;53.254;10.400;2022-09-25T06:09:45;13.00;99.90
935;DHT22;454;53.254;10.400;2022-09-25T06:12:11;13.00;99.90
935;DHT22;454;53.254;10.400;2022-09-25T06:14:38;13.00;99.90
935;DHT22;454;53.254;10.400;2022-09-25T06:17:05;13.00;99.90
935;DHT22;454;53.254;10.400;2022-09-25T06:19:34;13.10;99.90
935;DHT22;454;53.254;10.400;2022-09-25T06:22:00;13.10;99.90
935;DHT22;454;53.254;10.400;2022-09-25T06:24:27;13.10;99.90
935;DHT22;454;53.254;10.400;2022-09-25T06:26:54;13.10;99.90
935;DHT22;454;53.254;10.400;2022-09-25T06:29:20;13.20;99.90
935;DHT22;454;53.254;10.400;2022-09-25T06:31:47;13.10;99.90
935;DHT22;454;53.254;10.400;2022-09-25T06:34:14;13.20;99.90
935;DHT22;454;53.254;10.400;2022-09-25T06:36:42;13.20;99.90
935;DHT22;454;53.254;10.400;2022-09-25T06:39:09;13.10;99.90
935;DHT22;454;53.254;10.400;2022-09-25T06:41:36;13.20;99.90
935;DHT22;454;53.254;10.400;2022-09-25T06:44:03;13.20;99.90
935;DHT22;454;53.254;10.400;2022-09-25T06:46:31;13.20;99.90
935;DHT22;454;53.254;10.400;2022-09-25T06:48:58;13.20;99.90
935;DHT22;454;53.254;10.400;2022-09-25T06:51:25;13.20;99.90
935;DHT22;454;53.254;10.400;2022-09-25T06:53:54;13.30;99.90
935;DHT22;454;53.254;10.400;2022-09-25T06:56:21;13.30;99.90
935;DHT22;454;53.254;10.400;2022-09-25T06:58:48;13.30;99.90
935;DHT22;454;53.254;10.400;2022-09-25T07:01:15;13.30;99.90
935;DHT22;454;53.254;10.400;2022-09-25T07:03:41;13.30;99.90
935;DHT22;454;53.254;10.400;2022-09-25T07:06:13;13.30;99.90
935;DHT22;454;53.254;10.400;2022-09-25T07:08:40;13.30;99.90
935;DHT22;454;53.254;10.400;2022-09-25T07:11:11;13.30;99.90
935;DHT22;454;53.254;10.400;2022-09-25T07:13:39;13.40;99.90
935;DHT22;454;53.254;10.400;2022-09-25T07:16:09;13.40;99.90
935;DHT22;454;53.254;10.400;2022-09-25T07:18:36;13.40;99.90
935;DHT22;454;53.254;10.400;2022-09-25T07:21:05;13.40;99.90
935;DHT22;454;53.254;10.400;2022-09-25T07:23:32;13.50;99.90
935;DHT22;454;53.254;10.400;2022-09-25T07:26:05;13.50;99.90
935;DHT22;454;53.254;10.400;2022-09-25T07:28:33;13.50;99.90
935;DHT22;454;53.254;10.400;2022-09-25T07:31:09;13.50;99.90
935;DHT22;454;53.254;10.400;2022-09-25T07:33:36;13.60;99.90
935;DHT22;454;53.254;10.400;2022-09-25T07:36:03;13.60;99.90
935;DHT22;454;53.254;10.400;2022-09-25T07:38:31;13.60;99.90
935;DHT22;454;53.254;10.400;2022-09-25T07:40:58;13.60;99.90
935;DHT22;454;53.254;10.400;2022-09-25T07:43:25;13.70;99.90
935;DHT22;454;53.254;10.400;2022-09-25T07:45:53;13.70;99.90
935;DHT22;454;53.254;10.400;2022-09-25T07:48:20;13.70;99.90
935;DHT22;454;53.254;10.400;2022-09-25T07:50:47;13.70;99.90
935;DHT22;454;53.254;10.400;2022-09-25T07:53:15;13.70;99.90
935;DHT22;454;53.254;10.400;2022-09-25T07:55:41;13.80;99.90
935;DHT22;454;53.254;10.400;2022-09-25T07:58:09;13.90;99.90
935;DHT22;454;53.254;10.400;2022-09-25T08:00:35;13.90;99.90
935;DHT22;454;53.254;10.400;2022-09-25T08:03:03;13.90;99.90
935;DHT22;454;53.254;10.400;2022-09-25T08:05:30;14.00;99.90
935;DHT22;454;53.254;10.400;2022-09-25T08:07:57;14.00;99.90
935;DHT22;454;53.254;10.400;2022-09-25T08:10:24;12.70;99.90
935;DHT22;454;53.254;10.400;2022-09-25T08:12:50;14.10;99.90
935;DHT22;454;53.254;10.400;2022-09-25T08:15:17;14.10;99.90
935;DHT22;454;53.254;10.400;2022-09-25T08:17:44;14.10;99.90
935;DHT22;454;53.254;10.400;2022-09-25T08:20:12;14.10;99.90
935;DHT22;454;53.254;10.400;2022-09-25T08:22:38;14.10;99.90
935;DHT22;454;53.254;10.400;2022-09-25T08:25:06;14.00;99.90
935;DHT22;454;53.254;10.400;2022-09-25T08:27:34;14.00;99.90
935;DHT22;454;53.254;10.400;2022-09-25T08:30:06;14.00;99.90
935;DHT22;454;53.254;10.400;2022-09-25T08:32:33;14.10;99.90
935;DHT22;454;53.254;10.400;2022-09-25T08:35:00;14.10;99.90
935;DHT22;454;53.254;10.400;2022-09-25T08:37:29;14.10;99.90
935;DHT22;454;53.254;10.400;2022-09-25T08:39:56;14.20;99.90
935;DHT22;454;53.254;10.400;2022-09-25T08:42:26;14.20;99.90
935;DHT22;454;53.254;10.400;2022-09-25T08:44:55;14.20;99.90
935;DHT22;454;53.254;10.400;2022-09-25T08:47:37;14.20;99.90
935;DHT22;454;53.254;10.400;2022-09-25T08:50:23;14.20;99.90
935;DHT22;454;53.254;10.400;2022-09-25T08:52:55;14.30;99.90
935;DHT22;454;53.254;10.400;2022-09-25T08:55:28;14.30;99.90
935;DHT22;454;53.254;10.400;2022-09-25T08:58:20;14.30;99.90
935;DHT22;454;53.254;10.400;2022-09-25T09:00:49;14.40;99.90
935;DHT22;454;53.254;10.400;2022-09-25T09:03:17;14.40;99.90
935;DHT22;454;53.254;10.400;2022-09-25T09:05:44;14.50;99.90
935;DHT22;454;53.254;10.400;2022-09-25T09:08:18;14.50;99.90
935;DHT22;454;53.254;10.400;2022-09-25T09:10:52;14.70;99.90
935;DHT22;454;53.254;10.400;2022-09-25T09:13:24;14.70;99.90
935;DHT22;454;53.254;10.400;2022-09-25T09:15:56;14.70;99.90
935;DHT22;454;53.254;10.400;2022-09-25T09:18:27;14.80;99.90
935;DHT22;454;53.254;10.400;2022-09-25T09:20:55;14.80;99.90
935;DHT22;454;53.254;10.400;2022-09-25T09:23:32;14.90;99.90
935;DHT22;454;53.254;10.400;2022-09-25T09:26:01;15.10;99.90
935;DHT22;454;53.254;10.400;2022-09-25T09:28:48;15.10;99.90
935;DHT22;454;53.254;10.400;2022-09-25T09:31:24;15.10;99.90
935;DHT22;454;53.254;10.400;2022-09-25T09:34:00;15.10;99.90
935;DHT22;454;53.254;10.400;2022-09-25T09:36:34;15.20;99.90
935;DHT22;454;53.254;10.400;2022-09-25T09:39:12;15.10;99.90
935;DHT22;454;53.254;10.400;2022-09-25T09:41:52;15.10;99.90
935;DHT22;454;53.254;10.400;2022-09-25T09:44:36;15.00;99.90
935;DHT22;454;53.254;10.400;2022-09-25T09:47:10;15.00;99.90
935;DHT22;454;53.254;10.400;2022-09-25T09:49:45;15.00;99.90
935;DHT22;454;53.254;10.400;2022-09-25T09:52:18;15.10;99.90
935;DHT22;454;53.254;10.400;2022-09-25T09:54:50;15.20;99.90
935;DHT22;454;53.254;10.400;2022-09-25T09:57:22;15.30;99.90
935;DHT22;454;53.254;10.400;2022-09-25T09:59:54;15.40;99.90
935;DHT22;454;53.254;10.400;2022-09-25T10:02:29;15.60;99.90
935;DHT22;454;53.254;10.400;2022-09-25T10:04:59;15.50;99.90
935;DHT22;454;53.254;10.400;2022-09-25T10:07:29;15.60;99.90
935;DHT22;454;53.254;10.400;2022-09-25T10:09:58;15.60;99.90
935;DHT22;454;53.254;10.400;2022-09-25T10:12:28;15.60;99.90
935;DHT22;454;53.254;10.400;2022-09-25T10:14:58;15.60;99.90
935;DHT22;454;53.254;10.400;2022-09-25T10:17:27;15.50;99.90
935;DHT22;454;53.254;10.400;2022-09-25T10:19:57;15.50;99.90
935;DHT22;454;53.254;10.400;2022-09-25T10:22:26;15.40;99.90
935;DHT22;454;53.254;10.400;2022-09-25T10:24:54;15.40;99.90
935;DHT22;454;53.254;10.400;2022-09-25T10:27:29;15.40;99.90
935;DHT22;454;53.254;10.400;2022-09-25T10:30:14;15.30;99.90
935;DHT22;454;53.254;10.400;2022-09-25T10:32:54;15.30;99.90
935;DHT22;454;53.254;10.400;2022-09-25T10:35:24;15.30;99.90
935;DHT22;454;53.254;10.400;2022-09-25T10:37:53;15.40;99.90
935;DHT22;454;53.254;10.400;2022-09-25T10:40:26;15.40;99.90
935;DHT22;454;53.254;10.400;2022-09-25T10:43:04;15.50;99.90
935;DHT22;454;53.254;10.400;2022-09-25T10:45:33;15.60;99.90
935;DHT22;454;53.254;10.400;2022-09-25T10:48:00;15.50;99.90
935;DHT22;454;53.254;10.400;2022-09-25T10:51:04;15.60;99.90
935;DHT22;454;53.254;10.400;2022-09-25T10:53:32;15.60;99.90
935;DHT22;454;53.254;10.400;2022-09-25T10:56:01;15.50;99.90
935;DHT22;454;53.254;10.400;2022-09-25T10:58:35;15.50;99.90
935;DHT22;454;53.254;10.400;2022-09-25T11:01:04;15.30;99.90
935;DHT22;454;53.254;10.400;2022-09-25T11:03:34;15.40;99.90
935;DHT22;454;53.254;10.400;2022-09-25T11:06:06;15.30;99.90
935;DHT22;454;53.254;10.400;2022-09-25T11:08:36;15.20;99.90
935;DHT22;454;53.254;10.400;2022-09-25T11:11:05;15.10;99.90
935;DHT22;454;53.254;10.400;2022-09-25T11:13:39;15.00;99.90
935;DHT22;454;53.254;10.400;2022-09-25T11:16:08;15.10;99.90
935;DHT22;454;53.254;10.400;2022-09-25T11:18:38;14.80;99.90
935;DHT22;454;53.254;10.400;2022-09-25T11:21:17;14.80;99.90
935;DHT22;454;53.254;10.400;2022-09-25T11:24:00;14.70;99.90
935;DHT22;454;53.254;10.400;2022-09-25T11:26:32;14.30;99.90
935;DHT22;454;53.254;10.400;2022-09-25T11:29:08;14.70;99.90
935;DHT22;454;53.254;10.400;2022-09-25T11:31:41;14.60;99.90
935;DHT22;454;53.254;10.400;2022-09-25T11:34:15;14.50;99.90
935;DHT22;454;53.254;10.400;2022-09-25T11:36:46;14.50;99.90
935;DHT22;454;53.254;10.400;2022-09-25T11:39:19;14.40;99.90
935;DHT22;454;53.254;10.400;2022-09-25T11:42:10;14.30;99.90
935;DHT22;454;53.254;10.400;2022-09-25T11:44:44;14.30;99.90
935;DHT22;454;53.254;10.400;2022-09-25T11:47:24;14.20;99.90
935;DHT22;454;53.254;10.400;2022-09-25T11:49:55;14.10;99.90
935;DHT22;454;53.254;10.400;2022-09-25T11:52:36;14.10;99.90
935;DHT22;454;53.254;10.400;2022-09-25T11:55:32;14.00;99.90
935;DHT22;454;53.254;10.400;2022-09-25T11:58:12;13.90;99.90
935;DHT22;454;53.254;10.400;2022-09-25T12:00:50;13.80;99.90
935;DHT22;454;53.254;10.400;2022-09-25T12:03:33;13.90;99.90
935;DHT22;454;53.254;10.400;2022-09-25T12:06:16;13.90;99.90
935;DHT22;454;53.254;10.400;2022-09-25T12:08:55;13.90;99.90
935;DHT22;454;53.254;10.400;2022-09-25T12:11:29;13.90;99.90
935;DHT22;454;53.254;10.400;2022-09-25T12:14:15;13.80;99.90
935;DHT22;454;53.254;10.400;2022-09-25T12:16:51;13.90;99.90
935;DHT22;454;53.254;10.400;2022-09-25T12:19:32;13.90;99.90
935;DHT22;454;53.254;10.400;2022-09-25T12:22:04;13.80;99.90
935;DHT22;454;53.254;10.400;2022-09-25T12:24:47;13.70;99.90
935;DHT22;454;53.254;10.400;2022-09-25T12:27:25;13.60;99.90
935;DHT22;454;53.254;10.400;2022-09-25T12:30:06;13.60;99.90
935;DHT22;454;53.254;10.400;2022-09-25T12:32:55;13.50;99.90
935;DHT22;454;53.254;10.400;2022-09-25T12:35:32;13.50;99.90
935;DHT22;454;53.254;10.400;2022-09-25T12:38:03;13.50;99.90
935;DHT22;454;53.254;10.400;2022-09-25T12:40:40;13.60;99.90
935;DHT22;454;53.254;10.400;2022-09-25T12:43:13;13.60;99.90
935;DHT22;454;53.254;10.400;2022-09-25T12:45:46;13.70;99.90
935;DHT22;454;53.254;10.400;2022-09-25T12:48:19;13.70;99.90
935;DHT22;454;53.254;10.400;2022-09-25T12:50:53;13.70;99.90
935;DHT22;454;53.254;10.400;2022-09-25T12:53:24;13.80;99.90
935;DHT22;454;53.254;10.400;2022-09-25T12:55:56;13.70;99.90
935;DHT22;454;53.254;10.400;2022-09-25T12:58:36;13.80;99.90
935;DHT22;454;53.254;10.400;2022-09-25T13:01:10;13.80;99.90
935;DHT22;454;53.254;10.400;2022-09-25T13:03:45;13.80;99.90
935;DHT22;454;53.254;10.400;2022-09-25T13:06:16;13.80;99.90
935;DHT22;454;53.254;10.400;2022-09-25T13:08:49;13.80;99.90
935;DHT22;454;53.254;10.400;2022-09-25T13:11:26;13.70;99.90
935;DHT22;454;53.254;10.400;2022-09-25T13:13:55;13.70;99.90
935;DHT22;454;53.254;10.400;2022-09-25T13:16:22;13.70;99.90
935;DHT22;454;53.254;10.400;2022-09-25T13:19:09;13.60;99.90
935;DHT22;454;53.254;10.400;2022-09-25T13:21:38;13.70;99.90
935;DHT22;454;53.254;10.400;2022-09-25T13:24:06;13.70;99.90
935;DHT22;454;53.254;10.400;2022-09-25T13:26:45;13.70;99.90
935;DHT22;454;53.254;10.400;2022-09-25T13:29:26;13.80;99.90
935;DHT22;454;53.254;10.400;2022-09-25T13:32:02;13.90;99.90
935;DHT22;454;53.254;10.400;2022-09-25T13:34:36;14.00;99.90
935;DHT22;454;53.254;10.400;2022-09-25T13:37:06;14.10;99.90
935;DHT22;454;53.254;10.400;2022-09-25T13:39:35;14.20;99.90
935;DHT22;454;53.254;10.400;2022-09-25T13:42:28;14.40;99.90
935;DHT22;454;53.254;10.400;2022-09-25T13:45:02;14.50;99.90
935;DHT22;454;53.254;10.400;2022-09-25T13:47:55;14.40;99.90
935;DHT22;454;53.254;10.400;2022-09-25T13:50:37;14.30;99.90
935;DHT22;454;53.254;10.400;2022-09-25T13:53:26;14.30;99.90
935;DHT22;454;53.254;10.400;2022-09-25T13:56:20;14.20;99.90
935;DHT22;454;53.254;10.400;2022-09-25T14:01:56;14.10;99.90
935;DHT22;454;53.254;10.400;2022-09-25T14:04:31;14.30;99.90
935;DHT22;454;53.254;10.400;2022-09-25T14:07:18;14.50;99.90
935;DHT22;454;53.254;10.400;2022-09-25T14:09:49;14.60;99.90
935;DHT22;454;53.254;10.400;2022-09-25T14:12:32;14.60;99.90
935;DHT22;454;53.254;10.400;2022-09-25T14:15:02;14.70;99.90
935;DHT22;454;53.254;10.400;2022-09-25T14:17:31;14.60;99.90
935;DHT22;454;53.254;10.400;2022-09-25T14:20:03;14.50;99.90
935;DHT22;454;53.254;10.400;2022-09-25T14:22:37;14.40;99.90
935;DHT22;454;53.254;10.400;2022-09-25T14:25:23;14.30;99.90
935;DHT22;454;53.254;10.400;2022-09-25T14:27:52;14.20;99.90
935;DHT22;454;53.254;10.400;2022-09-25T14:30:19;14.10;99.90
935;DHT22;454;53.254;10.400;2022-09-25T14:32:58;14.10;99.90
935;DHT22;454;53.254;10.400;2022-09-25T14:35:33;14.10;99.90
935;DHT22;454;53.254;10.400;2022-09-25T14:38:12;14.20;99.90
935;DHT22;454;53.254;10.400;2022-09-25T14:40:52;14.20;99.90
935;DHT22;454;53.254;10.400;2022-09-25T14:43:46;14.20;99.90
935;DHT22;454;53.254;10.400;2022-09-25T14:46:16;14.20;99.90
935;DHT22;454;53.254;10.400;2022-09-25T14:48:47;14.20;99.90
935;DHT22;454;53.254;10.400;2022-09-25T14:51:21;14.10;99.90
935;DHT22;454;53.254;10.400;2022-09-25T14:53:57;14.10;99.90
935;DHT22;454;53.254;10.400;2022-09-25T14:56:27;14.10;99.90
935;DHT22;454;53.254;10.400;2022-09-25T14:59:03;14.20;99.90
935;DHT22;454;53.254;10.400;2022-09-25T15:01:32;14.20;99.90
935;DHT22;454;53.254;10.400;2022-09-25T15:04:00;14.20;99.90
935;DHT22;454;53.254;10.400;2022-09-25T15:06:29;14.30;99.90
935;DHT22;454;53.254;10.400;2022-09-25T15:08:58;14.40;99.90
935;DHT22;454;53.254;10.400;2022-09-25T15:11:37;14.50;99.90
935;DHT22;454;53.254;10.400;2022-09-25T15:14:10;14.60;99.90
935;DHT22;454;53.254;10.400;2022-09-25T15:16:38;14.60;99.90
935;DHT22;454;53.254;10.400;2022-09-25T15:19:26;14.60;99.90
935;DHT22;454;53.254;10.400;2022-09-25T15:21:54;14.60;99.90
935;DHT22;454;53.254;10.400;2022-09-25T15:24:24;14.50;99.90
935;DHT22;454;53.254;10.400;2022-09-25T15:26:55;14.40;99.90
935;DHT22;454;53.254;10.400;2022-09-25T15:29:27;14.40;99.90
935;DHT22;454;53.254;10.400;2022-09-25T15:31:54;14.30;99.90
935;DHT22;454;53.254;10.400;2022-09-25T15:34:22;14.30;99.90
935;DHT22;454;53.254;10.400;2022-09-25T15:36:50;14.30;99.90
935;DHT22;454;53.254;10.400;2022-09-25T15:39:23;14.30;99.90
935;DHT22;454;53.254;10.400;2022-09-25T15:41:51;14.30;99.90
935;DHT22;454;53.254;10.400;2022-09-25T15:44:19;14.30;99.90
935;DHT22;454;53.254;10.400;2022-09-25T15:46:49;14.20;99.90
935;DHT22;454;53.254;10.400;2022-09-25T15:49:19;14.20;99.90
935;DHT22;454;53.254;10.400;2022-09-25T15:51:50;14.10;99.90
935;DHT22;454;53.254;10.400;2022-09-25T15:54:33;14.10;99.90
935;DHT22;454;53.254;10.400;2022-09-25T15:57:03;14.10;99.90
935;DHT22;454;53.254;10.400;2022-09-25T15:59:34;14.10;99.90
935;DHT22;454;53.254;10.400;2022-09-25T16:02:09;14.10;99.90
935;DHT22;454;53.254;10.400;2022-09-25T16:04:59;14.00;99.90
935;DHT22;454;53.254;10.400;2022-09-25T16:07:30;14.00;99.90
935;DHT22;454;53.254;10.400;2022-09-25T16:10:01;14.00;99.90
935;DHT22;454;53.254;10.400;2022-09-25T16:12:32;13.90;99.90
935;DHT22;454;53.254;10.400;2022-09-25T16:18:31;13.90;99.90
935;DHT22;454;53.254;10.400;2022-09-25T16:21:15;13.90;99.90
935;DHT22;454;53.254;10.400;2022-09-25T16:23:50;13.80;99.90
935;DHT22;454;53.254;10.400;2022-09-25T16:26:20;13.70;99.90
935;DHT22;454;53.254;10.400;2022-09-25T16:28:55;13.70;99.90
935;DHT22;454;53.254;10.400;2022-09-25T16:31:23;13.60;99.90
935;DHT22;454;53.254;10.400;2022-09-25T16:33:52;13.50;99.90
935;DHT22;454;53.254;10.400;2022-09-25T16:36:21;13.50;99.90
935;DHT22;454;53.254;10.400;2022-09-25T16:39:18;13.40;99.90
935;DHT22;454;53.254;10.400;2022-09-25T16:41:48;13.40;99.90
935;DHT22;454;53.254;10.400;2022-09-25T16:44:17;13.30;99.90
935;DHT22;454;53.254;10.400;2022-09-25T16:49:30;13.20;99.90
935;DHT22;454;53.254;10.400;2022-09-25T16:52:02;13.10;99.90
935;DHT22;454;53.254;10.400;2022-09-25T16:54:30;13.10;99.90
935;DHT22;454;53.254;10.400;2022-09-25T16:56:59;13.00;99.90
935;DHT22;454;53.254;10.400;2022-09-25T16:59:27;13.00;99.90
935;DHT22;454;53.254;10.400;2022-09-25T17:01:57;12.90;99.90
935;DHT22;454;53.254;10.400;2022-09-25T17:04:27;12.80;99.90
935;DHT22;454;53.254;10.400;2022-09-25T17:07:03;12.80;99.90
935;DHT22;454;53.254;10.400;2022-09-25T17:09:33;12.80;99.90
935;DHT22;454;53.254;10.400;2022-09-25T17:12:02;12.70;99.90
935;DHT22;454;53.254;10.400;2022-09-25T17:14:32;12.70;99.90
935;DHT22;454;53.254;10.400;2022-09-25T17:16:59;12.70;99.90
935;DHT22;454;53.254;10.400;2022-09-25T17:19:27;12.60;99.90
935;DHT22;454;53.254;10.400;2022-09-25T17:21:54;12.60;99.90
935;DHT22;454;53.254;10.400;2022-09-25T17:24:24;12.60;99.90
935;DHT22;454;53.254;10.400;2022-09-25T17:26:54;12.50;99.90
935;DHT22;454;53.254;10.400;2022-09-25T17:29:23;12.50;99.90
935;DHT22;454;53.254;10.400;2022-09-25T17:31:51;12.50;99.90
935;DHT22;454;53.254;10.400;2022-09-25T17:34:20;12.50;99.90
935;DHT22;454;53.254;10.400;2022-09-25T17:36:52;12.50;99.90
935;DHT22;454;53.254;10.400;2022-09-25T17:39:20;12.50;99.90
935;DHT22;454;53.254;10.400;2022-09-25T17:41:46;12.40;99.90
935;DHT22;454;53.254;10.400;2022-09-25T17:44:17;12.40;99.90
935;DHT22;454;53.254;10.400;2022-09-25T17:46:48;12.40;99.90
935;DHT22;454;53.254;10.400;2022-09-25T17:49:21;12.40;99.90
935;DHT22;454;53.254;10.400;2022-09-25T17:51:48;12.40;99.90
935;DHT22;454;53.254;10.400;2022-09-25T17:54:19;12.30;99.90
935;DHT22;454;53.254;10.400;2022-09-25T17:56:46;12.30;99.90
935;DHT22;454;53.254;10.400;2022-09-25T17:59:14;12.30;99.90
935;DHT22;454;53.254;10.400;2022-09-25T18:01:41;12.30;99.90
935;DHT22;454;53.254;10.400;2022-09-25T18:04:18;12.20;99.90
935;DHT22;454;53.254;10.400;2022-09-25T18:06:45;12.20;99.90
935;DHT22;454;53.254;10.400;2022-09-25T18:09:12;12.20;99.90
935;DHT22;454;53.254;10.400;2022-09-25T18:11:42;12.20;99.90
935;DHT22;454;53.254;10.400;2022-09-25T18:14:10;12.20;99.90
935;DHT22;454;53.254;10.400;2022-09-25T18:16:39;12.10;99.90
935;DHT22;454;53.254;10.400;2022-09-25T18:19:08;12.10;99.90
935;DHT22;454;53.254;10.400;2022-09-25T18:21:54;12.00;99.90
935;DHT22;454;53.254;10.400;2022-09-25T18:24:39;12.10;99.90
935;DHT22;454;53.254;10.400;2022-09-25T18:27:06;12.00;99.90
935;DHT22;454;53.254;10.400;2022-09-25T18:29:34;12.00;99.90
935;DHT22;454;53.254;10.400;2022-09-25T18:32:02;12.00;99.90
935;DHT22;454;53.254;10.400;2022-09-25T18:34:29;11.90;99.90
935;DHT22;454;53.254;10.400;2022-09-25T18:36:57;11.90;99.90
935;DHT22;454;53.254;10.400;2022-09-25T18:39:29;11.90;99.90
935;DHT22;454;53.254;10.400;2022-09-25T18:41:57;11.90;99.90
935;DHT22;454;53.254;10.400;2022-09-25T18:44:24;11.90;99.90
935;DHT22;454;53.254;10.400;2022-09-25T18:46:57;11.90;99.90
935;DHT22;454;53.254;10.400;2022-09-25T18:49:24;11.90;99.90
935;DHT22;454;53.254;10.400;2022-09-25T18:51:53;11.80;99.90
935;DHT22;454;53.254;10.400;2022-09-25T18:54:23;11.80;99.90
935;DHT22;454;53.254;10.400;2022-09-25T18:56:52;11.80;99.90
935;DHT22;454;53.254;10.400;2022-09-25T18:59:19;11.80;99.90
935;DHT22;454;53.254;10.400;2022-09-25T19:01:46;11.70;99.90
935;DHT22;454;53.254;10.400;2022-09-25T19:04:14;11.70;99.90
935;DHT22;454;53.254;10.400;2022-09-25T19:06:42;11.60;99.90
935;DHT22;454;53.254;10.400;2022-09-25T19:09:09;11.60;99.90
935;DHT22;454;53.254;10.400;2022-09-25T19:11:37;11.50;99.90
935;DHT22;454;53.254;10.400;2022-09-25T19:14:03;11.50;99.90
935;DHT22;454;53.254;10.400;2022-09-25T19:16:30;11.50;99.90
935;DHT22;454;53.254;10.400;2022-09-25T19:18:57;11.40;99.90
935;DHT22;454;53.254;10.400;2022-09-25T19:21:24;11.40;99.90
935;DHT22;454;53.254;10.400;2022-09-25T19:23:51;11.30;99.90
935;DHT22;454;53.254;10.400;2022-09-25T19:26:20;11.30;99.90
935;DHT22;454;53.254;10.400;2022-09-25T19:28:51;11.30;99.90
935;DHT22;454;53.254;10.400;2022-09-25T19:31:20;11.20;99.90
935;DHT22;454;53.254;10.400;2022-09-25T19:33:48;11.20;99.90
935;DHT22;454;53.254;10.400;2022-09-25T19:36:17;11.20;99.90
935;DHT22;454;53.254;10.400;2022-09-25T19:38:44;11.10;99.90
935;DHT22;454;53.254;10.400;2022-09-25T19:41:13;11.10;99.90
935;DHT22;454;53.254;10.400;2022-09-25T19:43:41;11.00;99.90
935;DHT22;454;53.254;10.400;2022-09-25T19:46:11;11.00;99.90
935;DHT22;454;53.254;10.400;2022-09-25T19:48:39;10.90;99.90
935;DHT22;454;53.254;10.400;2022-09-25T19:51:06;10.90;99.90
935;DHT22;454;53.254;10.400;2022-09-25T19:53:34;10.90;99.90
935;DHT22;454;53.254;10.400;2022-09-25T19:56:01;10.90;99.90
935;DHT22;454;53.254;10.400;2022-09-25T19:58:28;10.80;99.90
935;DHT22;454;53.254;10.400;2022-09-25T20:00:59;10.80;99.90
935;DHT22;454;53.254;10.400;2022-09-25T20:03:28;10.80;99.90
935;DHT22;454;53.254;10.400;2022-09-25T20:05:55;10.70;99.90
935;DHT22;454;53.254;10.400;2022-09-25T20:08:22;10.70;99.90
935;DHT22;454;53.254;10.400;2022-09-25T20:10:48;10.70;99.90
935;DHT22;454;53.254;10.400;2022-09-25T20:13:15;10.60;99.90
935;DHT22;454;53.254;10.400;2022-09-25T20:15:42;10.50;99.90
935;DHT22;454;53.254;10.400;2022-09-25T20:18:15;10.50;99.90
935;DHT22;454;53.254;10.400;2022-09-25T20:20:47;10.50;99.90
935;DHT22;454;53.254;10.400;2022-09-25T20:23:14;10.40;99.90
935;DHT22;454;53.254;10.400;2022-09-25T20:25:41;10.30;99.90
935;DHT22;454;53.254;10.400;2022-09-25T20:28:11;10.40;99.90
935;DHT22;454;53.254;10.400;2022-09-25T20:30:38;10.30;99.90
935;DHT22;454;53.254;10.400;2022-09-25T20:33:06;10.30;99.90
935;DHT22;454;53.254;10.400;2022-09-25T20:35:33;10.20;99.90
935;DHT22;454;53.254;10.400;2022-09-25T20:38:01;10.20;99.90
935;DHT22;454;53.254;10.400;2022-09-25T20:40:33;10.20;99.90
935;DHT22;454;53.254;10.400;2022-09-25T20:43:03;10.10;99.90
935;DHT22;454;53.254;10.400;2022-09-25T20:45:30;10.10;99.90
935;DHT22;454;53.254;10.400;2022-09-25T20:47:57;10.00;99.90
935;DHT22;454;53.254;10.400;2022-09-25T20:50:24;10.00;99.90
935;DHT22;454;53.254;10.400;2022-09-25T20:52:50;10.00;99.90